createdAt,value
2023-01-29T00:01:09.862Z,97132.31
2023-01-29T00:03:36.458Z,97130.81
2023-01-29T00:06:08.432Z,97139.06
2023-01-29T00:08:38.461Z,97130.28
2023-01-29T00:11:07.481Z,97125.56
2023-01-29T00:13:34.580Z,97130.78
2023-01-29T00:16:01.735Z,97122.91
2023-01-29T00:18:29.995Z,97125.50
2023-01-29T00:20:56.687Z,97128.69
2023-01-29T00:23:23.504Z,97130.38
2023-01-29T00:25:49.957Z,97124.50
2023-01-29T00:28:16.954Z,97116.63
2023-01-29T00:30:43.668Z,97113.09
2023-01-29T00:33:11.869Z,97115.97
2023-01-29T00:35:40.053Z,97119.66
2023-01-29T00:38:06.600Z,97124.88
2023-01-29T00:40:52.986Z,97133.19
2023-01-29T00:46:28.678Z,97132.69
2023-01-29T00:48:55.180Z,97148.81
2023-01-29T00:51:21.657Z,97150.81
2023-01-29T00:53:48.081Z,97144.84
2023-01-29T00:56:14.624Z,97147.59
2023-01-29T00:58:41.080Z,97142.50
2023-01-29T01:01:08.319Z,97141.03
2023-01-29T01:03:42.077Z,97140.00
2023-01-29T01:06:10.811Z,97139.00
2023-01-29T01:08:55.840Z,97135.22
2023-01-29T01:11:22.459Z,97145.97
2023-01-29T01:13:48.898Z,97149.72
2023-01-29T01:16:18.662Z,97153.28
2023-01-29T01:18:45.476Z,97149.06
2023-01-29T01:21:11.879Z,97149.66
2023-01-29T01:23:39.281Z,97156.47
2023-01-29T01:26:10.909Z,97165.81
2023-01-29T01:28:38.156Z,97172.53
2023-01-29T01:31:12.712Z,97170.50
2023-01-29T01:33:40.386Z,97178.66
2023-01-29T01:36:10.911Z,97180.88
2023-01-29T01:38:44.355Z,97173.59
2023-01-29T01:41:12.946Z,97183.84
2023-01-29T01:44:00.760Z,97185.19
2023-01-29T01:46:36.795Z,97187.78
2023-01-29T01:49:18.863Z,97184.91
2023-01-29T01:51:48.752Z,97189.81
2023-01-29T01:54:24.961Z,97190.84
2023-01-29T01:57:04.871Z,97196.78
2023-01-29T01:59:33.727Z,97195.94
2023-01-29T02:02:18.715Z,97198.34
2023-01-29T02:05:07.581Z,97199.56
2023-01-29T02:07:54.591Z,97209.25
2023-01-29T02:10:21.997Z,97209.34
2023-01-29T02:12:48.470Z,97216.34
2023-01-29T02:15:14.973Z,97214.25
2023-01-29T02:17:41.681Z,97219.44
2023-01-29T02:20:14.106Z,97222.50
2023-01-29T02:22:49.870Z,97217.53
2023-01-29T02:25:16.228Z,97226.38
2023-01-29T02:27:48.911Z,97231.00
2023-01-29T02:30:32.377Z,97228.78
2023-01-29T02:33:14.028Z,97237.09
2023-01-29T02:35:46.479Z,97238.41
2023-01-29T02:38:21.704Z,97244.41
2023-01-29T02:40:56.543Z,97247.00
2023-01-29T02:43:32.828Z,97256.41
2023-01-29T02:46:05.294Z,97249.84
2023-01-29T02:48:46.576Z,97257.13
2023-01-29T02:51:38.241Z,97251.66
2023-01-29T02:54:13.907Z,97255.75
2023-01-29T02:56:48.921Z,97252.16
2023-01-29T02:59:20.340Z,97262.22
2023-01-29T03:01:57.999Z,97260.84
2023-01-29T03:04:29.344Z,97256.97
2023-01-29T03:07:01.190Z,97265.47
2023-01-29T03:09:33.769Z,97255.63
2023-01-29T03:12:20.102Z,97258.19
2023-01-29T03:15:09.247Z,97251.66
2023-01-29T03:17:47.020Z,97251.72
2023-01-29T03:20:20.684Z,97257.13
2023-01-29T03:22:54.481Z,97246.09
2023-01-29T03:25:42.600Z,97252.38
2023-01-29T03:28:29.922Z,97244.03
2023-01-29T03:31:19.216Z,97246.91
2023-01-29T03:34:09.101Z,97254.09
2023-01-29T03:36:47.159Z,97245.75
2023-01-29T03:39:15.372Z,97245.66
2023-01-29T03:41:53.249Z,97231.84
2023-01-29T03:44:26.454Z,97233.59
2023-01-29T03:46:56.846Z,97229.47
2023-01-29T03:49:44.714Z,97226.31
2023-01-29T03:52:19.620Z,97226.34
2023-01-29T03:55:14.104Z,97215.94
2023-01-29T03:58:31.832Z,97206.19
2023-01-29T04:01:10.134Z,97209.03
2023-01-29T04:04:11.771Z,97210.09
2023-01-29T04:06:41.138Z,97203.00
2023-01-29T04:09:14.633Z,97201.72
2023-01-29T04:11:50.082Z,97193.44
2023-01-29T04:14:17.445Z,97188.16
2023-01-29T04:16:51.392Z,97198.16
2023-01-29T04:19:18.851Z,97197.41
2023-01-29T04:21:49.212Z,97194.94
2023-01-29T04:24:18.139Z,97198.09
2023-01-29T04:27:14.075Z,97196.19
2023-01-29T04:30:07.015Z,97192.03
2023-01-29T04:33:05.953Z,97186.91
2023-01-29T04:35:48.269Z,97195.53
2023-01-29T04:38:25.643Z,97193.75
2023-01-29T04:41:11.328Z,97192.91
2023-01-29T04:43:47.954Z,97191.81
2023-01-29T04:46:18.508Z,97187.28
2023-01-29T04:48:57.853Z,97188.75
2023-01-29T04:51:48.996Z,97184.34
2023-01-29T04:54:18.167Z,97177.31
2023-01-29T04:57:09.265Z,97169.66
2023-01-29T04:59:42.335Z,97169.50
2023-01-29T05:02:11.850Z,97165.47
2023-01-29T05:04:41.074Z,97175.88
2023-01-29T05:07:15.242Z,97181.91
2023-01-29T05:09:46.145Z,97181.00
2023-01-29T05:12:17.457Z,97185.72
2023-01-29T05:14:45.587Z,97186.97
2023-01-29T05:17:18.311Z,97176.66
2023-01-29T05:19:46.501Z,97191.81
2023-01-29T05:22:16.894Z,97194.53
2023-01-29T05:24:43.431Z,97188.50
2023-01-29T05:27:41.071Z,97198.47
2023-01-29T05:30:10.339Z,97204.09
2023-01-29T05:32:36.885Z,97212.47
2023-01-29T05:35:03.479Z,97221.63
2023-01-29T05:37:29.965Z,97222.78
2023-01-29T05:39:56.368Z,97236.19
2023-01-29T05:42:22.880Z,97243.88
2023-01-29T05:44:49.508Z,97238.81
2023-01-29T05:47:23.575Z,97237.47
2023-01-29T05:49:50.055Z,97248.34
2023-01-29T05:52:16.628Z,97243.25
2023-01-29T05:54:43.686Z,97247.81
2023-01-29T05:57:10.184Z,97256.81
2023-01-29T05:59:36.903Z,97257.78
2023-01-29T06:02:03.430Z,97256.19
2023-01-29T06:04:29.890Z,97256.94
2023-01-29T06:06:56.392Z,97263.09
2023-01-29T06:09:22.824Z,97267.06
2023-01-29T06:11:49.283Z,97276.13
2023-01-29T06:14:16.854Z,97275.25
2023-01-29T06:16:43.323Z,97277.88
2023-01-29T06:19:09.788Z,97288.13
2023-01-29T06:21:36.235Z,97295.47
2023-01-29T06:24:03.112Z,97297.03
2023-01-29T06:26:29.613Z,97301.28
2023-01-29T06:28:56.287Z,97307.91
2023-01-29T06:31:37.382Z,97311.47
2023-01-29T06:34:05.607Z,97325.72
2023-01-29T06:36:32.138Z,97327.22
2023-01-29T06:38:58.730Z,97341.50
2023-01-29T06:41:25.824Z,97345.66
2023-01-29T06:43:52.439Z,97343.91
2023-01-29T06:46:18.923Z,97346.94
2023-01-29T06:48:45.404Z,97355.97
2023-01-29T06:51:11.877Z,97367.63
2023-01-29T06:53:39.673Z,97368.91
2023-01-29T06:56:07.305Z,97379.66
2023-01-29T06:58:40.026Z,97390.19
2023-01-29T07:01:34.695Z,97383.59
2023-01-29T07:04:03.007Z,97378.69
2023-01-29T07:06:38.440Z,97380.13
2023-01-29T07:09:05.034Z,97388.13
2023-01-29T07:11:34.002Z,97380.84
2023-01-29T07:14:00.661Z,97378.94
2023-01-29T07:16:39.173Z,97381.13
2023-01-29T07:19:05.652Z,97379.31
2023-01-29T07:21:32.162Z,97377.94
2023-01-29T07:23:58.664Z,97380.78
2023-01-29T07:26:25.247Z,97383.75
2023-01-29T07:28:51.743Z,97389.91
2023-01-29T07:31:18.355Z,97378.72
2023-01-29T07:33:45.231Z,97389.44
2023-01-29T07:36:12.668Z,97390.31
2023-01-29T07:38:39.632Z,97388.00
2023-01-29T07:41:06.647Z,97382.81
2023-01-29T07:43:33.257Z,97380.38
2023-01-29T07:46:04.389Z,97372.97
2023-01-29T07:48:30.921Z,97370.41
2023-01-29T07:50:58.935Z,97358.06
2023-01-29T07:53:26.121Z,97353.22
2023-01-29T07:55:52.610Z,97344.97
2023-01-29T07:58:19.168Z,97341.09
2023-01-29T08:00:46.020Z,97330.63
2023-01-29T08:03:16.255Z,97326.81
2023-01-29T08:05:46.671Z,97315.13
2023-01-29T08:08:13.675Z,97310.66
2023-01-29T08:10:40.643Z,97310.06
2023-01-29T08:13:08.218Z,97310.06
2023-01-29T08:18:21.663Z,97305.63
2023-01-29T08:20:48.120Z,97301.44
2023-01-29T08:23:16.503Z,97305.25
2023-01-29T08:25:43.494Z,97296.72
2023-01-29T08:28:12.283Z,97299.88
2023-01-29T08:30:39.514Z,97289.81
2023-01-29T08:33:06.015Z,97286.94
2023-01-29T08:35:32.524Z,97279.47
2023-01-29T08:38:03.193Z,97281.47
2023-01-29T08:40:32.422Z,97287.34
2023-01-29T08:43:06.882Z,97280.53
2023-01-29T08:45:36.765Z,97286.72
2023-01-29T08:48:03.778Z,97284.00
2023-01-29T08:50:31.809Z,97290.16
2023-01-29T08:52:59.622Z,97280.41
2023-01-29T08:55:26.563Z,97275.56
2023-01-29T08:57:53.071Z,97276.44
2023-01-29T09:00:20.020Z,97264.09
2023-01-29T09:02:46.725Z,97272.47
2023-01-29T09:05:13.265Z,97259.09
2023-01-29T09:07:39.734Z,97261.78
2023-01-29T09:10:06.517Z,97266.53
2023-01-29T09:12:32.968Z,97256.38
2023-01-29T09:14:59.483Z,97253.00
2023-01-29T09:17:26.097Z,97253.81
2023-01-29T09:19:53.330Z,97255.00
2023-01-29T09:22:20.397Z,97259.00
2023-01-29T09:24:46.877Z,97252.19
2023-01-29T09:27:13.342Z,97257.13
2023-01-29T09:29:40.283Z,97260.09
2023-01-29T09:32:07.166Z,97263.19
2023-01-29T09:34:34.082Z,97268.00
2023-01-29T09:37:00.717Z,97269.56
2023-01-29T09:39:27.223Z,97277.13
2023-01-29T09:42:07.997Z,97273.44
2023-01-29T09:44:48.645Z,97274.47
2023-01-29T09:47:17.916Z,97270.84
2023-01-29T09:49:52.272Z,97283.72
2023-01-29T09:52:28.209Z,97280.50
2023-01-29T09:55:00.885Z,97291.09
2023-01-29T09:57:50.588Z,97288.25
2023-01-29T10:00:36.358Z,97295.06
2023-01-29T10:03:28.140Z,97303.38
2023-01-29T10:06:02.253Z,97301.72
2023-01-29T10:08:50.693Z,97299.50
2023-01-29T10:12:05.060Z,97297.69
2023-01-29T10:14:50.012Z,97304.22
2023-01-29T10:17:46.325Z,97302.69
2023-01-29T10:20:18.770Z,97301.41
2023-01-29T10:22:55.260Z,97298.38
2023-01-29T10:25:23.002Z,97306.03
2023-01-29T10:27:53.179Z,97298.06
2023-01-29T10:30:47.413Z,97300.41
2023-01-29T10:33:20.126Z,97305.91
2023-01-29T10:35:53.810Z,97301.38
2023-01-29T10:38:31.855Z,97299.34
2023-01-29T10:41:01.090Z,97308.31
2023-01-29T10:43:51.769Z,97312.94
2023-01-29T10:46:27.712Z,97311.97
2023-01-29T10:49:18.973Z,97310.97
2023-01-29T10:52:09.649Z,97315.13
2023-01-29T10:54:41.976Z,97315.94
2023-01-29T10:57:20.951Z,97306.53
2023-01-29T11:00:13.187Z,97305.84
2023-01-29T11:02:48.572Z,97311.16
2023-01-29T11:05:24.180Z,97311.91
2023-01-29T11:08:01.999Z,97309.63
2023-01-29T11:10:30.334Z,97303.28
2023-01-29T11:12:58.155Z,97294.09
2023-01-29T11:15:34.970Z,97291.44
2023-01-29T11:18:15.831Z,97286.66
2023-01-29T11:20:44.100Z,97264.03
2023-01-29T11:23:27.859Z,97264.03
2023-01-29T11:25:56.325Z,97253.28
2023-01-29T11:28:42.246Z,97255.59
2023-01-29T11:31:26.203Z,97246.88
2023-01-29T11:34:02.163Z,97229.56
2023-01-29T11:36:37.021Z,97229.41
2023-01-29T11:39:25.108Z,97219.25
2023-01-29T11:42:00.593Z,97230.41
2023-01-29T11:44:28.452Z,97226.75
2023-01-29T11:46:57.260Z,97241.97
2023-01-29T11:49:33.710Z,97240.75
2023-01-29T11:52:04.446Z,97226.50
2023-01-29T11:54:39.935Z,97213.91
2023-01-29T11:57:23.265Z,97208.53
2023-01-29T11:59:51.640Z,97215.03
2023-01-29T12:02:28.042Z,97206.16
2023-01-29T12:04:56.314Z,97198.00
2023-01-29T12:07:22.850Z,97201.19
2023-01-29T12:09:55.148Z,97196.44
2023-01-29T12:12:31.697Z,97193.72
2023-01-29T12:15:19.680Z,97188.97
2023-01-29T12:17:49.453Z,97180.88
2023-01-29T12:20:22.973Z,97180.22
2023-01-29T12:23:01.712Z,97170.72
2023-01-29T12:25:46.779Z,97177.34
2023-01-29T12:28:25.347Z,97174.81
2023-01-29T12:31:05.276Z,97170.50
2023-01-29T12:33:48.779Z,97160.63
2023-01-29T12:36:40.471Z,97164.72
2023-01-29T12:39:13.151Z,97153.69
2023-01-29T12:41:46.175Z,97156.50
2023-01-29T12:44:29.627Z,97158.06
2023-01-29T12:47:00.276Z,97151.94
2023-01-29T12:49:30.328Z,97133.84
2023-01-29T12:52:32.527Z,97138.78
2023-01-29T12:55:08.165Z,97134.19
2023-01-29T12:57:43.741Z,97124.25
2023-01-29T13:00:15.502Z,97116.97
2023-01-29T13:03:03.884Z,97117.34
2023-01-29T13:05:36.683Z,97111.88
2023-01-29T13:08:09.391Z,97108.69
2023-01-29T13:10:40.932Z,97101.44
2023-01-29T13:13:39.243Z,97112.16
2023-01-29T13:16:11.142Z,97115.47
2023-01-29T13:18:47.799Z,97102.56
2023-01-29T13:21:19.319Z,97113.53
2023-01-29T13:23:51.327Z,97106.59
2023-01-29T13:26:19.567Z,97111.72
2023-01-29T13:28:47.162Z,97105.88
2023-01-29T13:31:26.860Z,97114.06
2023-01-29T13:34:20.947Z,97113.94
2023-01-29T13:36:51.858Z,97126.06
2023-01-29T13:39:26.882Z,97127.25
2023-01-29T13:41:55.579Z,97132.34
2023-01-29T13:44:33.708Z,97138.09
2023-01-29T13:47:02.794Z,97144.81
2023-01-29T13:49:40.060Z,97138.31
2023-01-29T13:52:34.612Z,97139.25
2023-01-29T13:55:10.041Z,97143.16
2023-01-29T13:57:46.202Z,97136.34
2023-01-29T14:00:21.629Z,97132.88
2023-01-29T14:03:13.952Z,97133.47
2023-01-29T14:05:42.976Z,97135.66
2023-01-29T14:08:12.176Z,97139.69
2023-01-29T14:10:39.080Z,97135.88
2023-01-29T14:13:11.629Z,97142.91
2023-01-29T14:15:41.391Z,97141.47
2023-01-29T14:18:10.926Z,97139.44
2023-01-29T14:20:46.202Z,97147.47
2023-01-29T14:23:44.067Z,97148.81
2023-01-29T14:26:32.201Z,97151.84
2023-01-29T14:29:14.488Z,97152.47
2023-01-29T14:31:47.391Z,97148.69
2023-01-29T14:34:19.581Z,97139.41
2023-01-29T14:36:47.761Z,97138.34
2023-01-29T14:39:36.162Z,97148.84
2023-01-29T14:42:04.341Z,97152.25
2023-01-29T14:44:45.911Z,97149.06
2023-01-29T14:47:41.451Z,97154.81
2023-01-29T14:50:32.909Z,97164.56
2023-01-29T14:53:03.628Z,97163.38
2023-01-29T14:55:37.158Z,97165.47
2023-01-29T14:58:04.313Z,97169.59
2023-01-29T15:00:36.451Z,97180.69
2023-01-29T15:03:05.179Z,97174.56
2023-01-29T15:05:35.705Z,97185.13
2023-01-29T15:08:13.495Z,97181.09
2023-01-29T15:10:45.738Z,97173.44
2023-01-29T15:13:24.806Z,97173.66
2023-01-29T15:15:59.392Z,97176.75
2023-01-29T15:18:37.088Z,97180.28
2023-01-29T15:21:11.717Z,97182.31
2023-01-29T15:23:40.839Z,97176.06
2023-01-29T15:26:11.637Z,97174.19
2023-01-29T15:28:40.091Z,97167.31
2023-01-29T15:31:13.326Z,97175.47
2023-01-29T15:33:44.792Z,97173.03
2023-01-29T15:36:20.686Z,97161.91
2023-01-29T15:38:47.345Z,97154.09
2023-01-29T15:41:18.488Z,97157.03
2023-01-29T15:43:50.321Z,97149.09
2023-01-29T15:46:26.063Z,97144.69
2023-01-29T15:48:55.034Z,97142.44
2023-01-29T15:51:25.174Z,97137.38
2023-01-29T15:54:02.739Z,97142.72
2023-01-29T15:56:34.087Z,97142.38
2023-01-29T15:59:07.300Z,97147.03
2023-01-29T16:01:35.828Z,97154.22
2023-01-29T16:04:03.209Z,97153.81
2023-01-29T16:06:39.446Z,97157.94
2023-01-29T16:09:07.022Z,97158.81
2023-01-29T16:11:35.346Z,97162.94
2023-01-29T16:14:06.306Z,97178.38
2023-01-29T16:16:32.932Z,97179.56
2023-01-29T16:19:01.097Z,97178.06
2023-01-29T16:21:33.091Z,97190.47
2023-01-29T16:24:10.308Z,97199.09
2023-01-29T16:26:42.086Z,97199.00
2023-01-29T16:29:12.188Z,97195.03
2023-01-29T16:31:40.745Z,97197.72
2023-01-29T16:34:10.399Z,97201.72
2023-01-29T16:36:37.157Z,97210.53
2023-01-29T16:39:13.899Z,97208.16
2023-01-29T16:41:46.215Z,97223.50
2023-01-29T16:44:15.562Z,97228.56
2023-01-29T16:46:46.582Z,97225.69
2023-01-29T16:49:39.149Z,97234.44
2023-01-29T16:52:37.311Z,97233.97
2023-01-29T16:55:12.914Z,97238.06
2023-01-29T16:57:40.919Z,97245.50
2023-01-29T17:00:18.771Z,97235.06
2023-01-29T17:02:45.307Z,97248.63
2023-01-29T17:05:21.521Z,97245.44
2023-01-29T17:07:48.535Z,97251.97
2023-01-29T17:10:20.384Z,97259.53
2023-01-29T17:12:56.401Z,97264.66
2023-01-29T17:15:46.883Z,97263.88
2023-01-29T17:18:31.042Z,97271.44
2023-01-29T17:20:57.622Z,97278.03
2023-01-29T17:23:24.106Z,97282.38
2023-01-29T17:25:51.822Z,97284.44
2023-01-29T17:28:18.617Z,97284.53
2023-01-29T17:30:56.628Z,97292.00
2023-01-29T17:33:29.365Z,97303.44
2023-01-29T17:35:57.099Z,97311.81
2023-01-29T17:38:26.481Z,97311.22
2023-01-29T17:41:11.872Z,97320.66
2023-01-29T17:43:38.757Z,97324.69
2023-01-29T17:46:05.677Z,97317.13
2023-01-29T17:48:33.410Z,97323.75
2023-01-29T17:51:03.725Z,97332.69
2023-01-29T17:53:44.307Z,97323.66
2023-01-29T17:56:21.919Z,97336.44
2023-01-29T17:58:48.486Z,97341.38
2023-01-29T18:01:15.156Z,97343.56
2023-01-29T18:03:46.905Z,97343.28
2023-01-29T18:06:23.761Z,97344.91
2023-01-29T18:08:51.210Z,97355.13
2023-01-29T18:11:18.058Z,97352.97
2023-01-29T18:13:44.530Z,97354.03
2023-01-29T18:16:11.140Z,97354.94
2023-01-29T18:18:37.665Z,97356.50
2023-01-29T18:21:04.359Z,97344.97
2023-01-29T18:23:31.371Z,97345.84
2023-01-29T18:25:58.126Z,97344.88
2023-01-29T18:28:24.897Z,97341.19
2023-01-29T18:30:54.637Z,97346.28
2023-01-29T18:33:21.281Z,97338.00
2023-01-29T18:35:48.566Z,97338.06
2023-01-29T18:38:15.540Z,97338.28
2023-01-29T18:40:42.086Z,97338.41
2023-01-29T18:43:08.995Z,97344.41
2023-01-29T18:45:35.562Z,97337.69
2023-01-29T18:48:02.890Z,97337.13
2023-01-29T18:50:29.477Z,97334.50
2023-01-29T18:52:56.347Z,97328.94
2023-01-29T18:55:23.353Z,97332.25
2023-01-29T18:58:29.312Z,97340.19
2023-01-29T19:00:43.809Z,97337.38
2023-01-29T19:03:10.881Z,97332.16
2023-01-29T19:05:37.551Z,97335.16
2023-01-29T19:08:05.408Z,97328.22
2023-01-29T19:10:33.393Z,97327.16
2023-01-29T19:12:59.950Z,97315.00
2023-01-29T19:15:26.751Z,97320.66
2023-01-29T19:18:04.743Z,97319.38
2023-01-29T19:23:11.809Z,97320.25
2023-01-29T19:25:47.572Z,97315.16
2023-01-29T19:28:14.613Z,97309.72
2023-01-29T19:30:41.197Z,97315.03
2023-01-29T19:33:10.370Z,97317.75
2023-01-29T19:35:37.159Z,97302.47
2023-01-29T19:38:04.424Z,97313.63
2023-01-29T19:40:31.087Z,97309.94
2023-01-29T19:42:58.464Z,97320.16
2023-01-29T19:45:49.549Z,97312.28
2023-01-29T19:48:21.667Z,97309.41
2023-01-29T19:50:56.522Z,97300.66
2023-01-29T19:53:23.885Z,97301.31
2023-01-29T19:55:58.871Z,97293.94
2023-01-29T19:58:26.042Z,97302.59
2023-01-29T20:01:00.483Z,97299.91
2023-01-29T20:03:27.983Z,97305.63
2023-01-29T20:05:55.485Z,97304.91
2023-01-29T20:08:23.490Z,97311.56
2023-01-29T20:10:50.448Z,97323.06
2023-01-29T20:13:17.161Z,97320.50
2023-01-29T20:15:47.872Z,97324.06
2023-01-29T20:18:20.014Z,97328.00
2023-01-29T20:20:49.026Z,97338.22
2023-01-29T20:23:27.996Z,97339.00
2023-01-29T20:26:02.883Z,97345.34
2023-01-29T20:28:30.689Z,97335.84
2023-01-29T20:30:59.028Z,97342.84
2023-01-29T20:33:26.544Z,97337.56
2023-01-29T20:36:02.182Z,97340.06
2023-01-29T20:38:34.927Z,97339.28
2023-01-29T20:41:07.663Z,97339.50
2023-01-29T20:43:36.848Z,97336.88
2023-01-29T20:46:04.595Z,97336.69
2023-01-29T20:48:32.116Z,97346.03
2023-01-29T20:51:12.461Z,97349.97
2023-01-29T20:53:41.123Z,97360.53
2023-01-29T20:56:09.220Z,97358.03
2023-01-29T20:58:37.982Z,97367.06
2023-01-29T21:01:11.027Z,97367.94
2023-01-29T21:03:40.428Z,97367.19
2023-01-29T21:06:13.372Z,97375.00
2023-01-29T21:08:40.861Z,97372.44
2023-01-29T21:11:09.226Z,97368.41
2023-01-29T21:13:36.083Z,97375.53
2023-01-29T21:16:03.125Z,97383.53
2023-01-29T21:18:29.830Z,97380.75
2023-01-29T21:20:56.533Z,97377.50
2023-01-29T21:23:23.125Z,97378.06
2023-01-29T21:25:49.699Z,97383.78
2023-01-29T21:28:16.647Z,97382.41
2023-01-29T21:30:43.235Z,97389.47
2023-01-29T21:33:12.747Z,97383.72
2023-01-29T21:35:40.177Z,97392.50
2023-01-29T21:38:06.782Z,97393.28
2023-01-29T21:40:33.390Z,97386.47
2023-01-29T21:43:11.660Z,97383.66
2023-01-29T21:45:40.399Z,97387.88
2023-01-29T21:48:07.493Z,97386.09
2023-01-29T21:50:35.048Z,97383.13
2023-01-29T21:53:02.012Z,97390.22
2023-01-29T21:55:28.848Z,97388.69
2023-01-29T21:57:55.446Z,97387.66
2023-01-29T22:00:23.902Z,97379.66
2023-01-29T22:02:51.229Z,97395.16
2023-01-29T22:05:20.008Z,97388.31
2023-01-29T22:07:48.326Z,97387.66
2023-01-29T22:10:16.929Z,97385.22
2023-01-29T22:12:44.649Z,97375.94
2023-01-29T22:15:23.990Z,97379.94
2023-01-29T22:17:50.849Z,97376.66
2023-01-29T22:20:18.050Z,97376.97
2023-01-29T22:22:45.253Z,97371.72
2023-01-29T22:25:11.816Z,97372.66
2023-01-29T22:27:39.213Z,97371.16
2023-01-29T22:30:06.972Z,97368.66
2023-01-29T22:32:33.672Z,97369.59
2023-01-29T22:35:00.187Z,97361.69
2023-01-29T22:37:26.722Z,97349.03
2023-01-29T22:39:53.242Z,97351.16
2023-01-29T22:42:20.688Z,97353.59
2023-01-29T22:44:48.249Z,97344.66
2023-01-29T22:47:14.942Z,97346.84
2023-01-29T22:49:41.567Z,97333.47
2023-01-29T22:52:10.730Z,97329.59
2023-01-29T22:54:41.616Z,97326.56
2023-01-29T22:57:13.377Z,97320.00
2023-01-29T22:59:41.270Z,97305.47
2023-01-29T23:02:08.484Z,97295.47
2023-01-29T23:04:35.182Z,97282.81
2023-01-29T23:07:01.757Z,97272.47
2023-01-29T23:09:28.347Z,97277.47
2023-01-29T23:11:54.876Z,97273.63
2023-01-29T23:14:21.422Z,97267.75
2023-01-29T23:16:59.246Z,97262.91
2023-01-29T23:19:27.082Z,97260.66
2023-01-29T23:21:53.623Z,97254.22
2023-01-29T23:24:30.282Z,97245.25
2023-01-29T23:27:15.040Z,97238.22
2023-01-29T23:29:46.384Z,97231.97
2023-01-29T23:32:16.152Z,97230.97
2023-01-29T23:34:42.646Z,97221.94
2023-01-29T23:37:10.047Z,97217.78
2023-01-29T23:39:36.541Z,97211.44
2023-01-29T23:42:03.168Z,97213.00
2023-01-29T23:44:29.692Z,97211.81
2023-01-29T23:46:56.634Z,97199.03
2023-01-29T23:49:23.503Z,97191.22
2023-01-29T23:51:50.913Z,97201.41
2023-01-29T23:54:17.737Z,97198.00
2023-01-29T23:56:44.568Z,97193.50
2023-01-29T23:59:11.481Z,97190.66
